sensor_id;sensor_type;location;lat;lon;timestamp;P1;durP1;ratioP1;P2;durP2;ratioP2
20334;SDS011;10325;51.468;5.804;2023-05-10T00:01:22;1.50;;;1.10;;
20334;SDS011;10325;51.468;5.804;2023-05-10T00:03:51;1.20;;;1.10;;
20334;SDS011;10325;51.468;5.804;2023-05-10T00:06:33;1.23;;;1.07;;
20334;SDS011;10325;51.468;5.804;2023-05-10T00:09:04;1.23;;;1.00;;
20334;SDS011;10325;51.468;5.804;2023-05-10T00:11:45;2.40;;;0.97;;
20334;SDS011;10325;51.468;5.804;2023-05-10T00:14:14;0.80;;;0.80;;
20334;SDS011;10325;51.468;5.804;2023-05-10T00:16:45;1.10;;;0.93;;
20334;SDS011;10325;51.468;5.804;2023-05-10T00:19:13;1.40;;;1.00;;
20334;SDS011;10325;51.468;5.804;2023-05-10T00:21:46;1.13;;;0.90;;
20334;SDS011;10325;51.468;5.804;2023-05-10T00:24:18;0.93;;;0.90;;
20334;SDS011;10325;51.468;5.804;2023-05-10T00:26:45;1.27;;;1.17;;
20334;SDS011;10325;51.468;5.804;2023-05-10T00:29:17;1.13;;;1.03;;
20334;SDS011;10325;51.468;5.804;2023-05-10T00:32:02;1.33;;;0.87;;
20334;SDS011;10325;51.468;5.804;2023-05-10T00:34:33;1.10;;;1.00;;
20334;SDS011;10325;51.468;5.804;2023-05-10T00:37:03;1.10;;;1.00;;
20334;SDS011;10325;51.468;5.804;2023-05-10T00:39:38;1.63;;;1.10;;
20334;SDS011;10325;51.468;5.804;2023-05-10T00:42:10;0.80;;;0.80;;
20334;SDS011;10325;51.468;5.804;2023-05-10T00:44:40;1.03;;;0.93;;
20334;SDS011;10325;51.468;5.804;2023-05-10T00:47:12;1.70;;;0.90;;
20334;SDS011;10325;51.468;5.804;2023-05-10T00:49:43;1.30;;;1.20;;
20334;SDS011;10325;51.468;5.804;2023-05-10T00:52:15;0.90;;;0.90;;
20334;SDS011;10325;51.468;5.804;2023-05-10T00:54:43;1.60;;;1.00;;
20334;SDS011;10325;51.468;5.804;2023-05-10T00:57:12;1.23;;;0.90;;
20334;SDS011;10325;51.468;5.804;2023-05-10T00:59:42;1.03;;;0.93;;
20334;SDS011;10325;51.468;5.804;2023-05-10T01:02:11;2.20;;;1.00;;
20334;SDS011;10325;51.468;5.804;2023-05-10T01:04:43;0.90;;;0.90;;
20334;SDS011;10325;51.468;5.804;2023-05-10T01:07:18;0.90;;;0.90;;
20334;SDS011;10325;51.468;5.804;2023-05-10T01:09:47;1.03;;;0.90;;
20334;SDS011;10325;51.468;5.804;2023-05-10T01:12:19;1.57;;;0.80;;
20334;SDS011;10325;51.468;5.804;2023-05-10T01:14:46;1.00;;;0.90;;
20334;SDS011;10325;51.468;5.804;2023-05-10T01:17:16;0.70;;;0.70;;
20334;SDS011;10325;51.468;5.804;2023-05-10T01:19:47;0.80;;;0.63;;
20334;SDS011;10325;51.468;5.804;2023-05-10T01:25:29;0.80;;;0.80;;
20334;SDS011;10325;51.468;5.804;2023-05-10T01:34:32;1.20;;;1.10;;
20334;SDS011;10325;51.468;5.804;2023-05-10T01:37:15;0.93;;;0.73;;
20334;SDS011;10325;51.468;5.804;2023-05-10T01:39:55;1.00;;;0.80;;
20334;SDS011;10325;51.468;5.804;2023-05-10T01:42:40;1.43;;;1.03;;
20334;SDS011;10325;51.468;5.804;2023-05-10T01:48:21;0.87;;;0.87;;
20334;SDS011;10325;51.468;5.804;2023-05-10T01:50:59;0.77;;;0.70;;
20334;SDS011;10325;51.468;5.804;2023-05-10T01:53:32;0.87;;;0.87;;
20334;SDS011;10325;51.468;5.804;2023-05-10T01:56:07;0.87;;;0.87;;
20334;SDS011;10325;51.468;5.804;2023-05-10T01:58:39;1.53;;;1.00;;
20334;SDS011;10325;51.468;5.804;2023-05-10T02:01:15;1.43;;;1.00;;
20334;SDS011;10325;51.468;5.804;2023-05-10T02:04:01;0.80;;;0.80;;
20334;SDS011;10325;51.468;5.804;2023-05-10T02:06:49;1.10;;;1.00;;
20334;SDS011;10325;51.468;5.804;2023-05-10T02:09:23;1.50;;;1.10;;
20334;SDS011;10325;51.468;5.804;2023-05-10T02:11:52;1.37;;;1.00;;
20334;SDS011;10325;51.468;5.804;2023-05-10T02:14:24;0.90;;;0.90;;
20334;SDS011;10325;51.468;5.804;2023-05-10T02:16:58;0.90;;;0.90;;
20334;SDS011;10325;51.468;5.804;2023-05-10T02:19:32;1.13;;;1.03;;
20334;SDS011;10325;51.468;5.804;2023-05-10T02:22:10;1.63;;;1.07;;
20334;SDS011;10325;51.468;5.804;2023-05-10T02:24:42;1.40;;;0.93;;
20334;SDS011;10325;51.468;5.804;2023-05-10T02:27:13;1.40;;;1.30;;
20334;SDS011;10325;51.468;5.804;2023-05-10T02:29:44;1.50;;;1.40;;
20334;SDS011;10325;51.468;5.804;2023-05-10T02:32:15;2.63;;;1.10;;
20334;SDS011;10325;51.468;5.804;2023-05-10T02:34:45;1.77;;;1.40;;
20334;SDS011;10325;51.468;5.804;2023-05-10T02:37:22;2.03;;;1.57;;
20334;SDS011;10325;51.468;5.804;2023-05-10T02:39:53;1.30;;;1.20;;
20334;SDS011;10325;51.468;5.804;2023-05-10T02:42:33;1.47;;;1.37;;
20334;SDS011;10325;51.468;5.804;2023-05-10T02:45:08;1.40;;;1.30;;
20334;SDS011;10325;51.468;5.804;2023-05-10T02:47:40;1.30;;;1.20;;
20334;SDS011;10325;51.468;5.804;2023-05-10T02:50:10;2.67;;;1.30;;
20334;SDS011;10325;51.468;5.804;2023-05-10T02:52:42;2.03;;;1.10;;
20334;SDS011;10325;51.468;5.804;2023-05-10T02:55:16;1.63;;;1.30;;
20334;SDS011;10325;51.468;5.804;2023-05-10T02:57:59;1.43;;;1.27;;
20334;SDS011;10325;51.468;5.804;2023-05-10T03:00:44;1.70;;;1.53;;
20334;SDS011;10325;51.468;5.804;2023-05-10T03:03:14;1.57;;;1.47;;
20334;SDS011;10325;51.468;5.804;2023-05-10T03:05:46;2.17;;;1.50;;
20334;SDS011;10325;51.468;5.804;2023-05-10T03:08:18;3.00;;;1.40;;
20334;SDS011;10325;51.468;5.804;2023-05-10T03:11:35;1.67;;;1.57;;
20334;SDS011;10325;51.468;5.804;2023-05-10T03:17:07;2.53;;;1.80;;
20334;SDS011;10325;51.468;5.804;2023-05-10T03:19:55;2.20;;;2.00;;
20334;SDS011;10325;51.468;5.804;2023-05-10T03:22:44;2.30;;;2.10;;
20334;SDS011;10325;51.468;5.804;2023-05-10T03:25:18;2.07;;;1.83;;
20334;SDS011;10325;51.468;5.804;2023-05-10T03:27:55;2.30;;;1.90;;
20334;SDS011;10325;51.468;5.804;2023-05-10T03:30:29;3.17;;;2.37;;
20334;SDS011;10325;51.468;5.804;2023-05-10T03:33:07;2.33;;;1.63;;
20334;SDS011;10325;51.468;5.804;2023-05-10T03:35:39;1.70;;;1.60;;
20334;SDS011;10325;51.468;5.804;2023-05-10T03:38:07;2.17;;;1.97;;
20334;SDS011;10325;51.468;5.804;2023-05-10T03:40:38;2.60;;;2.10;;
20334;SDS011;10325;51.468;5.804;2023-05-10T03:43:12;2.30;;;2.10;;
20334;SDS011;10325;51.468;5.804;2023-05-10T03:45:43;2.50;;;2.10;;
20334;SDS011;10325;51.468;5.804;2023-05-10T03:48:14;2.20;;;2.00;;
20334;SDS011;10325;51.468;5.804;2023-05-10T03:50:46;3.80;;;2.50;;
20334;SDS011;10325;51.468;5.804;2023-05-10T03:53:19;2.70;;;2.20;;
20334;SDS011;10325;51.468;5.804;2023-05-10T03:55:49;4.57;;;2.60;;
20334;SDS011;10325;51.468;5.804;2023-05-10T03:58:30;3.60;;;2.80;;
20334;SDS011;10325;51.468;5.804;2023-05-10T04:01:06;6.63;;;2.67;;
20334;SDS011;10325;51.468;5.804;2023-05-10T04:03:36;3.20;;;2.67;;
20334;SDS011;10325;51.468;5.804;2023-05-10T04:06:04;2.83;;;2.63;;
20334;SDS011;10325;51.468;5.804;2023-05-10T04:08:48;3.23;;;2.83;;
20334;SDS011;10325;51.468;5.804;2023-05-10T04:11:17;2.80;;;2.60;;
20334;SDS011;10325;51.468;5.804;2023-05-10T04:13:52;3.20;;;2.90;;
20334;SDS011;10325;51.468;5.804;2023-05-10T04:16:20;5.03;;;2.87;;
20334;SDS011;10325;51.468;5.804;2023-05-10T04:18:52;5.63;;;3.10;;
20334;SDS011;10325;51.468;5.804;2023-05-10T04:21:21;3.63;;;3.00;;
20334;SDS011;10325;51.468;5.804;2023-05-10T04:23:51;3.23;;;2.93;;
20334;SDS011;10325;51.468;5.804;2023-05-10T04:26:30;3.70;;;3.30;;
20334;SDS011;10325;51.468;5.804;2023-05-10T04:28:58;2.93;;;2.70;;
20334;SDS011;10325;51.468;5.804;2023-05-10T04:31:33;4.17;;;3.77;;
20334;SDS011;10325;51.468;5.804;2023-05-10T04:34:04;3.80;;;3.37;;
20334;SDS011;10325;51.468;5.804;2023-05-10T04:36:32;3.90;;;3.43;;
20334;SDS011;10325;51.468;5.804;2023-05-10T04:39:02;4.03;;;3.27;;
20334;SDS011;10325;51.468;5.804;2023-05-10T04:41:35;4.50;;;3.83;;
20334;SDS011;10325;51.468;5.804;2023-05-10T04:44:08;4.10;;;3.27;;
20334;SDS011;10325;51.468;5.804;2023-05-10T04:46:50;4.67;;;3.63;;
20334;SDS011;10325;51.468;5.804;2023-05-10T04:49:20;5.50;;;3.80;;
20334;SDS011;10325;51.468;5.804;2023-05-10T04:51:51;4.27;;;3.87;;
20334;SDS011;10325;51.468;5.804;2023-05-10T04:54:21;4.20;;;3.77;;
20334;SDS011;10325;51.468;5.804;2023-05-10T04:56:52;4.27;;;3.87;;
20334;SDS011;10325;51.468;5.804;2023-05-10T04:59:19;4.43;;;4.03;;
20334;SDS011;10325;51.468;5.804;2023-05-10T05:01:47;4.17;;;3.77;;
20334;SDS011;10325;51.468;5.804;2023-05-10T05:04:17;4.20;;;3.80;;
20334;SDS011;10325;51.468;5.804;2023-05-10T05:06:48;5.30;;;4.80;;
20334;SDS011;10325;51.468;5.804;2023-05-10T05:09:19;4.33;;;3.93;;
20334;SDS011;10325;51.468;5.804;2023-05-10T05:11:48;4.47;;;4.07;;
20334;SDS011;10325;51.468;5.804;2023-05-10T05:14:19;4.90;;;4.37;;
20334;SDS011;10325;51.468;5.804;2023-05-10T05:16:49;6.87;;;4.77;;
20334;SDS011;10325;51.468;5.804;2023-05-10T05:19:22;4.67;;;4.27;;
20334;SDS011;10325;51.468;5.804;2023-05-10T05:21:51;4.90;;;4.33;;
20334;SDS011;10325;51.468;5.804;2023-05-10T05:24:23;5.17;;;4.67;;
20334;SDS011;10325;51.468;5.804;2023-05-10T05:26:53;5.40;;;4.90;;
20334;SDS011;10325;51.468;5.804;2023-05-10T05:29:24;6.13;;;5.37;;
20334;SDS011;10325;51.468;5.804;2023-05-10T05:31:53;5.83;;;5.23;;
20334;SDS011;10325;51.468;5.804;2023-05-10T05:34:25;17.60;;;8.33;;
20334;SDS011;10325;51.468;5.804;2023-05-10T05:36:55;15.90;;;8.50;;
20334;SDS011;10325;51.468;5.804;2023-05-10T05:39:29;14.13;;;8.23;;
20334;SDS011;10325;51.468;5.804;2023-05-10T05:42:00;15.73;;;8.63;;
20334;SDS011;10325;51.468;5.804;2023-05-10T05:44:29;14.40;;;9.77;;
20334;SDS011;10325;51.468;5.804;2023-05-10T05:47:00;15.83;;;9.13;;
20334;SDS011;10325;51.468;5.804;2023-05-10T05:49:31;15.23;;;8.50;;
20334;SDS011;10325;51.468;5.804;2023-05-10T05:52:04;16.50;;;9.70;;
20334;SDS011;10325;51.468;5.804;2023-05-10T05:54:34;16.13;;;10.07;;
20334;SDS011;10325;51.468;5.804;2023-05-10T05:57:03;19.30;;;9.93;;
20334;SDS011;10325;51.468;5.804;2023-05-10T05:59:33;15.50;;;9.80;;
20334;SDS011;10325;51.468;5.804;2023-05-10T06:02:04;12.97;;;9.57;;
20334;SDS011;10325;51.468;5.804;2023-05-10T06:04:47;20.20;;;9.57;;
20334;SDS011;10325;51.468;5.804;2023-05-10T06:07:18;14.47;;;10.03;;
20334;SDS011;10325;51.468;5.804;2023-05-10T06:09:49;19.13;;;10.87;;
20334;SDS011;10325;51.468;5.804;2023-05-10T06:12:18;15.27;;;10.30;;
20334;SDS011;10325;51.468;5.804;2023-05-10T06:14:46;16.30;;;10.53;;
20334;SDS011;10325;51.468;5.804;2023-05-10T06:17:16;14.83;;;10.13;;
20334;SDS011;10325;51.468;5.804;2023-05-10T06:19:46;12.77;;;9.83;;
20334;SDS011;10325;51.468;5.804;2023-05-10T06:22:18;15.43;;;9.93;;
20334;SDS011;10325;51.468;5.804;2023-05-10T06:24:51;17.70;;;10.53;;
20334;SDS011;10325;51.468;5.804;2023-05-10T06:27:21;14.13;;;10.77;;
20334;SDS011;10325;51.468;5.804;2023-05-10T06:29:50;15.87;;;10.63;;
20334;SDS011;10325;51.468;5.804;2023-05-10T06:32:32;15.40;;;10.07;;
20334;SDS011;10325;51.468;5.804;2023-05-10T06:35:02;17.53;;;11.33;;
20334;SDS011;10325;51.468;5.804;2023-05-10T06:37:35;16.10;;;10.73;;
20334;SDS011;10325;51.468;5.804;2023-05-10T06:40:05;14.33;;;10.33;;
20334;SDS011;10325;51.468;5.804;2023-05-10T06:42:36;15.03;;;10.40;;
20334;SDS011;10325;51.468;5.804;2023-05-10T06:45:08;14.07;;;10.00;;
20334;SDS011;10325;51.468;5.804;2023-05-10T06:47:41;15.20;;;10.00;;
20334;SDS011;10325;51.468;5.804;2023-05-10T06:50:11;14.13;;;9.83;;
20334;SDS011;10325;51.468;5.804;2023-05-10T06:52:40;15.60;;;10.50;;
20334;SDS011;10325;51.468;5.804;2023-05-10T06:55:10;13.10;;;9.87;;
20334;SDS011;10325;51.468;5.804;2023-05-10T06:57:42;14.70;;;9.70;;
20334;SDS011;10325;51.468;5.804;2023-05-10T07:00:12;13.07;;;10.00;;
20334;SDS011;10325;51.468;5.804;2023-05-10T07:02:44;11.60;;;9.10;;
20334;SDS011;10325;51.468;5.804;2023-05-10T07:05:28;13.03;;;9.70;;
20334;SDS011;10325;51.468;5.804;2023-05-10T07:07:59;16.03;;;9.80;;
20334;SDS011;10325;51.468;5.804;2023-05-10T07:10:32;12.37;;;8.80;;
20334;SDS011;10325;51.468;5.804;2023-05-10T07:13:01;12.97;;;9.37;;
20334;SDS011;10325;51.468;5.804;2023-05-10T07:15:34;12.93;;;8.83;;
20334;SDS011;10325;51.468;5.804;2023-05-10T07:18:03;10.77;;;8.30;;
20334;SDS011;10325;51.468;5.804;2023-05-10T07:20:36;15.33;;;8.90;;
20334;SDS011;10325;51.468;5.804;2023-05-10T07:23:06;12.73;;;8.47;;
20334;SDS011;10325;51.468;5.804;2023-05-10T07:25:38;9.13;;;8.20;;
20334;SDS011;10325;51.468;5.804;2023-05-10T07:28:07;10.27;;;7.43;;
20334;SDS011;10325;51.468;5.804;2023-05-10T07:30:38;11.60;;;8.30;;
20334;SDS011;10325;51.468;5.804;2023-05-10T07:33:12;10.97;;;8.10;;
20334;SDS011;10325;51.468;5.804;2023-05-10T07:35:48;9.73;;;7.97;;
20334;SDS011;10325;51.468;5.804;2023-05-10T07:38:21;10.37;;;8.20;;
20334;SDS011;10325;51.468;5.804;2023-05-10T07:40:53;8.83;;;7.33;;
20334;SDS011;10325;51.468;5.804;2023-05-10T07:43:23;9.57;;;7.07;;
20334;SDS011;10325;51.468;5.804;2023-05-10T07:45:54;10.80;;;8.33;;
20334;SDS011;10325;51.468;5.804;2023-05-10T07:48:23;8.80;;;7.10;;
20334;SDS011;10325;51.468;5.804;2023-05-10T07:50:52;10.50;;;7.17;;
20334;SDS011;10325;51.468;5.804;2023-05-10T07:53:22;11.83;;;7.23;;
20334;SDS011;10325;51.468;5.804;2023-05-10T07:55:57;7.33;;;6.10;;
20334;SDS011;10325;51.468;5.804;2023-05-10T07:58:31;9.23;;;7.00;;
20334;SDS011;10325;51.468;5.804;2023-05-10T08:01:04;8.27;;;6.50;;
20334;SDS011;10325;51.468;5.804;2023-05-10T08:03:40;8.77;;;6.53;;
20334;SDS011;10325;51.468;5.804;2023-05-10T08:06:10;8.73;;;6.93;;
20334;SDS011;10325;51.468;5.804;2023-05-10T08:08:38;8.47;;;6.80;;
20334;SDS011;10325;51.468;5.804;2023-05-10T08:11:10;10.13;;;7.60;;
20334;SDS011;10325;51.468;5.804;2023-05-10T08:13:41;8.90;;;6.60;;
20334;SDS011;10325;51.468;5.804;2023-05-10T08:16:13;7.30;;;6.23;;
20334;SDS011;10325;51.468;5.804;2023-05-10T08:18:44;10.53;;;7.40;;
20334;SDS011;10325;51.468;5.804;2023-05-10T08:21:15;9.47;;;7.30;;
20334;SDS011;10325;51.468;5.804;2023-05-10T08:24:01;9.37;;;6.87;;
20334;SDS011;10325;51.468;5.804;2023-05-10T08:26:28;10.37;;;7.13;;
20334;SDS011;10325;51.468;5.804;2023-05-10T08:28:56;11.33;;;6.70;;
20334;SDS011;10325;51.468;5.804;2023-05-10T08:31:27;7.30;;;6.10;;
20334;SDS011;10325;51.468;5.804;2023-05-10T08:33:59;9.10;;;6.67;;
20334;SDS011;10325;51.468;5.804;2023-05-10T08:36:30;8.87;;;6.90;;
20334;SDS011;10325;51.468;5.804;2023-05-10T08:39:03;11.60;;;7.90;;
20334;SDS011;10325;51.468;5.804;2023-05-10T08:41:51;7.50;;;5.70;;
20334;SDS011;10325;51.468;5.804;2023-05-10T08:44:24;11.63;;;6.90;;
20334;SDS011;10325;51.468;5.804;2023-05-10T08:46:56;8.93;;;6.07;;
20334;SDS011;10325;51.468;5.804;2023-05-10T08:49:32;7.23;;;5.73;;
20334;SDS011;10325;51.468;5.804;2023-05-10T08:52:04;9.03;;;6.00;;
20334;SDS011;10325;51.468;5.804;2023-05-10T08:54:38;7.13;;;5.80;;
20334;SDS011;10325;51.468;5.804;2023-05-10T08:57:08;6.67;;;5.73;;
20334;SDS011;10325;51.468;5.804;2023-05-10T08:59:37;7.33;;;5.30;;
20334;SDS011;10325;51.468;5.804;2023-05-10T09:02:09;6.93;;;5.03;;
20334;SDS011;10325;51.468;5.804;2023-05-10T09:04:45;11.37;;;5.50;;
20334;SDS011;10325;51.468;5.804;2023-05-10T09:07:17;7.67;;;5.50;;
20334;SDS011;10325;51.468;5.804;2023-05-10T09:09:47;6.90;;;4.83;;
20334;SDS011;10325;51.468;5.804;2023-05-10T09:12:17;8.63;;;5.13;;
20334;SDS011;10325;51.468;5.804;2023-05-10T09:14:52;8.80;;;5.50;;
20334;SDS011;10325;51.468;5.804;2023-05-10T09:17:25;7.50;;;4.57;;
20334;SDS011;10325;51.468;5.804;2023-05-10T09:19:58;7.60;;;5.10;;
20334;SDS011;10325;51.468;5.804;2023-05-10T09:22:34;7.30;;;4.90;;
20334;SDS011;10325;51.468;5.804;2023-05-10T09:25:13;10.33;;;5.27;;
20334;SDS011;10325;51.468;5.804;2023-05-10T09:27:56;7.87;;;4.67;;
20334;SDS011;10325;51.468;5.804;2023-05-10T09:30:30;7.67;;;4.57;;
20334;SDS011;10325;51.468;5.804;2023-05-10T09:33:01;10.77;;;4.43;;
20334;SDS011;10325;51.468;5.804;2023-05-10T09:35:33;11.90;;;4.60;;
20334;SDS011;10325;51.468;5.804;2023-05-10T09:38:03;7.80;;;4.20;;
20334;SDS011;10325;51.468;5.804;2023-05-10T09:40:32;7.30;;;4.40;;
20334;SDS011;10325;51.468;5.804;2023-05-10T09:43:00;8.43;;;4.10;;
20334;SDS011;10325;51.468;5.804;2023-05-10T09:45:33;8.37;;;3.90;;
20334;SDS011;10325;51.468;5.804;2023-05-10T09:48:06;7.80;;;3.60;;
20334;SDS011;10325;51.468;5.804;2023-05-10T09:50:34;6.10;;;3.77;;
20334;SDS011;10325;51.468;5.804;2023-05-10T09:53:04;4.73;;;3.37;;
20334;SDS011;10325;51.468;5.804;2023-05-10T09:55:42;5.40;;;3.33;;
20334;SDS011;10325;51.468;5.804;2023-05-10T09:58:21;6.43;;;3.67;;
20334;SDS011;10325;51.468;5.804;2023-05-10T10:00:51;7.93;;;3.43;;
20334;SDS011;10325;51.468;5.804;2023-05-10T10:03:22;7.20;;;4.20;;
20334;SDS011;10325;51.468;5.804;2023-05-10T10:05:50;7.30;;;3.97;;
20334;SDS011;10325;51.468;5.804;2023-05-10T10:08:21;6.23;;;3.33;;
20334;SDS011;10325;51.468;5.804;2023-05-10T10:10:52;7.57;;;3.97;;
20334;SDS011;10325;51.468;5.804;2023-05-10T10:13:22;7.33;;;4.00;;
20334;SDS011;10325;51.468;5.804;2023-05-10T10:15:54;5.83;;;4.17;;
20334;SDS011;10325;51.468;5.804;2023-05-10T10:18:25;6.03;;;4.10;;
20334;SDS011;10325;51.468;5.804;2023-05-10T10:20:59;7.67;;;3.77;;
20334;SDS011;10325;51.468;5.804;2023-05-10T10:23:32;9.10;;;4.17;;
20334;SDS011;10325;51.468;5.804;2023-05-10T10:26:05;9.67;;;3.87;;
20334;SDS011;10325;51.468;5.804;2023-05-10T10:34:43;6.10;;;3.77;;
20334;SDS011;10325;51.468;5.804;2023-05-10T10:37:15;7.20;;;4.07;;
20334;SDS011;10325;51.468;5.804;2023-05-10T10:39:43;8.50;;;4.13;;
20334;SDS011;10325;51.468;5.804;2023-05-10T10:42:14;7.83;;;4.43;;
20334;SDS011;10325;51.468;5.804;2023-05-10T10:44:44;5.07;;;3.63;;
20334;SDS011;10325;51.468;5.804;2023-05-10T10:47:22;7.33;;;4.00;;
20334;SDS011;10325;51.468;5.804;2023-05-10T10:52:36;5.83;;;3.90;;
20334;SDS011;10325;51.468;5.804;2023-05-10T10:55:21;6.87;;;4.70;;
20334;SDS011;10325;51.468;5.804;2023-05-10T10:57:59;8.03;;;4.20;;
20334;SDS011;10325;51.468;5.804;2023-05-10T11:00:51;5.50;;;3.87;;
20334;SDS011;10325;51.468;5.804;2023-05-10T11:06:49;5.97;;;3.57;;
20334;SDS011;10325;51.468;5.804;2023-05-10T11:09:27;8.13;;;3.90;;
20334;SDS011;10325;51.468;5.804;2023-05-10T11:12:09;6.80;;;3.70;;
20334;SDS011;10325;51.468;5.804;2023-05-10T11:14:38;9.37;;;4.40;;
20334;SDS011;10325;51.468;5.804;2023-05-10T11:17:23;5.53;;;3.70;;
20334;SDS011;10325;51.468;5.804;2023-05-10T11:20:13;8.03;;;3.93;;
20334;SDS011;10325;51.468;5.804;2023-05-10T11:22:53;9.67;;;3.90;;
20334;SDS011;10325;51.468;5.804;2023-05-10T11:25:44;8.73;;;4.00;;
20334;SDS011;10325;51.468;5.804;2023-05-10T11:28:19;8.70;;;4.07;;
20334;SDS011;10325;51.468;5.804;2023-05-10T11:30:49;7.83;;;3.43;;
20334;SDS011;10325;51.468;5.804;2023-05-10T11:33:23;5.93;;;3.70;;
20334;SDS011;10325;51.468;5.804;2023-05-10T11:35:52;5.50;;;3.10;;
20334;SDS011;10325;51.468;5.804;2023-05-10T11:38:22;6.03;;;3.13;;
20334;SDS011;10325;51.468;5.804;2023-05-10T11:40:51;5.03;;;3.50;;
20334;SDS011;10325;51.468;5.804;2023-05-10T11:43:23;5.00;;;3.20;;
20334;SDS011;10325;51.468;5.804;2023-05-10T11:45:55;5.63;;;3.90;;
20334;SDS011;10325;51.468;5.804;2023-05-10T11:48:22;5.87;;;3.00;;
20334;SDS011;10325;51.468;5.804;2023-05-10T11:50:51;4.90;;;3.20;;
20334;SDS011;10325;51.468;5.804;2023-05-10T11:53:29;5.77;;;3.00;;
20334;SDS011;10325;51.468;5.804;2023-05-10T11:56:07;7.40;;;3.27;;
20334;SDS011;10325;51.468;5.804;2023-05-10T11:58:38;5.20;;;2.80;;
20334;SDS011;10325;51.468;5.804;2023-05-10T12:01:09;5.43;;;3.10;;
20334;SDS011;10325;51.468;5.804;2023-05-10T12:03:54;5.20;;;3.30;;
20334;SDS011;10325;51.468;5.804;2023-05-10T12:06:32;4.87;;;3.27;;
20334;SDS011;10325;51.468;5.804;2023-05-10T12:09:11;5.27;;;3.40;;
20334;SDS011;10325;51.468;5.804;2023-05-10T12:11:40;5.37;;;3.83;;
20334;SDS011;10325;51.468;5.804;2023-05-10T12:14:11;5.17;;;3.47;;
20334;SDS011;10325;51.468;5.804;2023-05-10T12:16:44;5.30;;;3.73;;
20334;SDS011;10325;51.468;5.804;2023-05-10T12:19:19;4.83;;;3.73;;
20334;SDS011;10325;51.468;5.804;2023-05-10T12:21:56;7.00;;;3.67;;
20334;SDS011;10325;51.468;5.804;2023-05-10T12:24:28;4.43;;;3.53;;
20334;SDS011;10325;51.468;5.804;2023-05-10T12:26:57;4.23;;;3.70;;
20334;SDS011;10325;51.468;5.804;2023-05-10T12:29:41;4.50;;;4.07;;
20334;SDS011;10325;51.468;5.804;2023-05-10T12:32:15;7.83;;;4.00;;
20334;SDS011;10325;51.468;5.804;2023-05-10T12:34:47;6.53;;;3.70;;
20334;SDS011;10325;51.468;5.804;2023-05-10T12:37:24;5.13;;;3.97;;
20334;SDS011;10325;51.468;5.804;2023-05-10T12:39:56;5.67;;;4.00;;
20334;SDS011;10325;51.468;5.804;2023-05-10T12:42:26;5.03;;;4.40;;
20334;SDS011;10325;51.468;5.804;2023-05-10T12:44:56;7.17;;;4.20;;
20334;SDS011;10325;51.468;5.804;2023-05-10T12:47:27;5.87;;;4.60;;
20334;SDS011;10325;51.468;5.804;2023-05-10T12:50:01;4.80;;;4.33;;
20334;SDS011;10325;51.468;5.804;2023-05-10T12:52:35;6.97;;;4.53;;
20334;SDS011;10325;51.468;5.804;2023-05-10T12:55:07;5.70;;;4.53;;
20334;SDS011;10325;51.468;5.804;2023-05-10T12:57:38;5.10;;;4.47;;
20334;SDS011;10325;51.468;5.804;2023-05-10T13:00:09;6.53;;;4.70;;
20334;SDS011;10325;51.468;5.804;2023-05-10T13:02:40;6.77;;;4.77;;
20334;SDS011;10325;51.468;5.804;2023-05-10T13:05:22;5.10;;;4.60;;
20334;SDS011;10325;51.468;5.804;2023-05-10T13:07:54;6.23;;;4.87;;
20334;SDS011;10325;51.468;5.804;2023-05-10T13:10:24;6.83;;;4.27;;
20334;SDS011;10325;51.468;5.804;2023-05-10T13:12:55;4.33;;;3.93;;
20334;SDS011;10325;51.468;5.804;2023-05-10T13:15:25;5.10;;;4.43;;
20334;SDS011;10325;51.468;5.804;2023-05-10T13:17:55;4.33;;;3.93;;
20334;SDS011;10325;51.468;5.804;2023-05-10T13:20:24;4.77;;;4.00;;
20334;SDS011;10325;51.468;5.804;2023-05-10T13:22:53;5.00;;;4.30;;
20334;SDS011;10325;51.468;5.804;2023-05-10T13:25:25;4.50;;;4.07;;
20334;SDS011;10325;51.468;5.804;2023-05-10T13:27:55;5.00;;;4.50;;
20334;SDS011;10325;51.468;5.804;2023-05-10T13:30:25;4.70;;;4.20;;
20334;SDS011;10325;51.468;5.804;2023-05-10T13:32:58;5.97;;;4.23;;
20334;SDS011;10325;51.468;5.804;2023-05-10T13:35:28;4.47;;;4.07;;
20334;SDS011;10325;51.468;5.804;2023-05-10T13:37:59;5.10;;;4.10;;
20334;SDS011;10325;51.468;5.804;2023-05-10T13:40:34;5.00;;;4.10;;
20334;SDS011;10325;51.468;5.804;2023-05-10T13:43:08;4.00;;;3.60;;
20334;SDS011;10325;51.468;5.804;2023-05-10T13:45:45;4.10;;;3.47;;
20334;SDS011;10325;51.468;5.804;2023-05-10T13:48:17;4.87;;;3.67;;
20334;SDS011;10325;51.468;5.804;2023-05-10T13:50:47;5.00;;;4.00;;
20334;SDS011;10325;51.468;5.804;2023-05-10T13:53:17;4.93;;;3.80;;
20334;SDS011;10325;51.468;5.804;2023-05-10T13:55:48;4.73;;;3.70;;
20334;SDS011;10325;51.468;5.804;2023-05-10T13:58:18;5.93;;;3.93;;
20334;SDS011;10325;51.468;5.804;2023-05-10T14:00:48;4.80;;;4.00;;
20334;SDS011;10325;51.468;5.804;2023-05-10T14:03:19;3.60;;;3.30;;
20334;SDS011;10325;51.468;5.804;2023-05-10T14:05:52;3.73;;;3.43;;
20334;SDS011;10325;51.468;5.804;2023-05-10T14:08:23;3.50;;;3.20;;
20334;SDS011;10325;51.468;5.804;2023-05-10T14:10:54;4.20;;;3.63;;
20334;SDS011;10325;51.468;5.804;2023-05-10T14:13:26;3.93;;;3.53;;
20334;SDS011;10325;51.468;5.804;2023-05-10T14:15:58;4.10;;;3.70;;
20334;SDS011;10325;51.468;5.804;2023-05-10T14:18:28;3.90;;;3.60;;
20334;SDS011;10325;51.468;5.804;2023-05-10T14:20:58;3.67;;;3.37;;
20334;SDS011;10325;51.468;5.804;2023-05-10T14:23:27;3.90;;;3.60;;
20334;SDS011;10325;51.468;5.804;2023-05-10T14:26:00;3.77;;;3.13;;
20334;SDS011;10325;51.468;5.804;2023-05-10T14:28:33;3.87;;;3.00;;
20334;SDS011;10325;51.468;5.804;2023-05-10T14:31:03;5.90;;;3.87;;
20334;SDS011;10325;51.468;5.804;2023-05-10T14:33:33;3.57;;;3.27;;
20334;SDS011;10325;51.468;5.804;2023-05-10T14:36:07;3.90;;;3.17;;
20334;SDS011;10325;51.468;5.804;2023-05-10T14:38:38;3.73;;;2.97;;
20334;SDS011;10325;51.468;5.804;2023-05-10T14:41:07;3.27;;;2.97;;
20334;SDS011;10325;51.468;5.804;2023-05-10T14:43:42;4.57;;;3.00;;
20334;SDS011;10325;51.468;5.804;2023-05-10T14:46:12;3.73;;;2.70;;
20334;SDS011;10325;51.468;5.804;2023-05-10T14:48:42;2.90;;;2.60;;
20334;SDS011;10325;51.468;5.804;2023-05-10T14:51:10;3.07;;;2.77;;
20334;SDS011;10325;51.468;5.804;2023-05-10T14:53:42;3.27;;;2.73;;
20334;SDS011;10325;51.468;5.804;2023-05-10T14:56:11;4.47;;;3.13;;
20334;SDS011;10325;51.468;5.804;2023-05-10T14:58:43;3.00;;;2.57;;
20334;SDS011;10325;51.468;5.804;2023-05-10T15:01:18;2.77;;;2.57;;
20334;SDS011;10325;51.468;5.804;2023-05-10T15:03:47;4.00;;;2.90;;
20334;SDS011;10325;51.468;5.804;2023-05-10T15:06:30;3.40;;;3.10;;
20334;SDS011;10325;51.468;5.804;2023-05-10T15:08:58;3.60;;;2.60;;
20334;SDS011;10325;51.468;5.804;2023-05-10T15:11:29;3.17;;;2.80;;
20334;SDS011;10325;51.468;5.804;2023-05-10T15:13:59;2.50;;;2.30;;
20334;SDS011;10325;51.468;5.804;2023-05-10T15:16:30;3.30;;;2.70;;
20334;SDS011;10325;51.468;5.804;2023-05-10T15:19:02;3.23;;;2.93;;
20334;SDS011;10325;51.468;5.804;2023-05-10T15:21:34;4.30;;;2.57;;
20334;SDS011;10325;51.468;5.804;2023-05-10T15:24:13;3.27;;;2.97;;
20334;SDS011;10325;51.468;5.804;2023-05-10T15:26:50;3.30;;;2.50;;
20334;SDS011;10325;51.468;5.804;2023-05-10T15:29:22;2.87;;;2.67;;
20334;SDS011;10325;51.468;5.804;2023-05-10T15:31:52;3.50;;;2.90;;
20334;SDS011;10325;51.468;5.804;2023-05-10T15:34:22;3.20;;;2.60;;
20334;SDS011;10325;51.468;5.804;2023-05-10T15:36:54;2.93;;;2.60;;
20334;SDS011;10325;51.468;5.804;2023-05-10T15:39:26;2.93;;;2.73;;
20334;SDS011;10325;51.468;5.804;2023-05-10T15:41:57;2.70;;;2.50;;
20334;SDS011;10325;51.468;5.804;2023-05-10T15:44:26;3.03;;;2.73;;
20334;SDS011;10325;51.468;5.804;2023-05-10T15:47:01;2.90;;;2.70;;